• Join FlightAware (Why Join?)
  • Login
  • US Flag 
07:43PM EDT


 

Airport Tracker/Info


-or-


 

Live Flight TrackerFlight Track Log ✈ PDT4155 ✈ 24-Dec-2013 ✈ KBGM - KPHL

Flight Track Log - Related Links

Times and Time Zones

All times are in EST time to prevent confusion due to time zone crossing. See the PDT4155 flight status page for this flight to view local times or setup timezone preferences in your user account.

Time Position Orientation Groundspeed Altitude Reporting Facility
EST Latitude Longitude Course Direction KTS MPH feet Rate Location/Type
07:10AM 41.9823 -75.9057 180° South  Level Estimated
07:11AM 41.9244 -75.9126 185° South  Level FlightAware Approximate
07:12AM 41.8680 -75.8936 154° Southeast  Level Estimated
07:13AM 41.8116 -75.8745 160° South  Level Estimated
07:14AM 41.7551 -75.8556 159° South  Level Estimated
07:15AM 41.6977 -75.8430 171° South  Level FlightAware Approximate
07:16AM 41.6413 -75.8239 153° Southeast  Level Estimated
07:17AM 41.5850 -75.8048 161° South  Level Estimated
07:18AM 41.5290 -75.7834 164° South  Level FlightAware Approximate
07:19AM 41.4731 -75.7620 164° South  Level FlightAware Approximate
07:20AM 41.4172 -75.7406 164° South  Level FlightAware Approximate
07:21AM 41.3608 -75.7219 162° South  Level Estimated
07:22AM 41.3054 -75.6980 162° South  Level FlightAware Approximate
07:23AM 41.2501 -75.6741 162° South  Level FlightAware Approximate
07:24AM 41.1948 -75.6503 162° South  Level FlightAware Approximate
07:25AM 41.1394 -75.6265 162° South  Level FlightAware Approximate
07:26AM 41.0828 -75.6089 163° South  Level Estimated
07:27AM 41.0275 -75.5848 162° South  Level FlightAware Approximate
07:28AM 40.9723 -75.5607 162° South  Level FlightAware Approximate
07:29AM 40.9170 -75.5367 162° South  Level FlightAware Approximate
07:30AM 40.8617 -75.5127 162° South  Level FlightAware Approximate
07:31AM 40.8048 -75.4969 190° South  Level Estimated
07:32AM 40.7467 -75.4975 180° South  Level FlightAware Approximate
07:33AM 40.6885 -75.4981 180° South  Level FlightAware Approximate
07:33AM 40.6500 -75.6500 193° South 264 304 5,800  Level Philadelphia TRACON
07:34AM 40.6319 -75.4801 187° South  Level Estimated
07:34AM 40.5667 -75.6333 171° South 261 300 5,000  Level Philadelphia TRACON
07:35AM 40.5742 -75.4892 187° South  Level FlightAware Approximate
07:35AM 40.5000 -75.6167 169° South 233 268 5,000  Level Philadelphia TRACON
07:36AM 40.5181 -75.4691 190° South  Level Estimated
07:36AM 40.4667 -75.5667 131° Southeast 230 265 5,000  Level Philadelphia TRACON
07:37AM 40.4614 -75.4863 193° South  Level FlightAware Approximate
07:37AM 40.4167 -75.5000 135° Southeast 235 270 5,000  Level Philadelphia TRACON
07:38AM 40.4047 -75.5034 193° South  Level FlightAware Approximate
07:38AM 40.3833 -75.4667 143° Southeast 234 269 5,000  Level Philadelphia TRACON
07:39AM 40.3333 -75.4000 135° Southeast 233 268 5,000 -60 Level Philadelphia TRACON
07:40AM 40.2833 -75.3500 143° Southeast 235 270 4,900 -360 Descending Philadelphia TRACON
07:41AM 40.2167 -75.2833 143° Southeast 238 274 4,300 -480 Descending Philadelphia TRACON
07:42AM 40.1833 -75.2333 131° Southeast 241 277 4,000 -180 Descending Philadelphia TRACON
07:43AM 40.1333 -75.1833 143° Southeast 231 266 4,000 -60 Level Philadelphia TRACON
07:44AM 40.0667 -75.1333 150° Southeast 227 261 3,900 -480 Descending Philadelphia TRACON
07:45AM 40.0167 -75.1167 166° South 230 265 3,000 -960 Descending Philadelphia TRACON
07:46AM 39.9500 -75.1333 191° South 225 259 2,000 -840 Descending Philadelphia TRACON
07:47AM 39.9000 -75.1667 207° Southwest 159 183 1,300 -900 Descending Philadelphia TRACON
07:48AM 39.8833 -75.2000 237° Southwest 119 137 200 -1,140 Descending Philadelphia TRACON